Avon, OH (44011)

3:28 PM EDT on August 30, 2015 (GMT -0400)
St. Mary School - Avon, OH | | Change Station
CLOSE
Current Station
Personal Weather Station
Location: Avon, OH
Elevation: 682 ft
Nearby Weather Stations

Elev 682 ft 41.45 °N, 82.03 °W | Updated 3 seconds ago

Partly Cloudy
Partly Cloudy
82.8 °F
Feels Like 87 °F
N
1.0
Wind Variable Wind from WNW
Gusts 5.0 mph

Today
High -- | Low -- °F
--% Chance of Precip.
Yesterday
High -- | Low -- °F
Precip. -- in
6:52 AM 8:04 PM
Full, 98% visible
Pressure 30.07 in
Visibility 10.0 miles
Clouds Scattered Clouds 3200 ft
Mostly Cloudy 15000 ft
Heat Index 87 °F
Dew Point 71 °F
Humidity 68%
Rainfall 0.66 in
Snow Depth Not available.
UV 4 out of 12
Pollen 9.80 out of 12
Air Quality Not available.
Flu Activity Not available.
METAR KCLE 301851Z 20009KT 10SM SCT032 BKN150 28/20 A3008 RMK AO2 SLP181 T02780200
Pressure 30.07 in
Visibility 10.0 miles
Clouds Scattered Clouds 3200 ft
Mostly Cloudy 15000 ft
Heat Index 87 °F
Dew Point 71 °F
Humidity 68%
Rainfall 0.66 in
Snow Depth Not available.
UV 4 out of 12
Pollen 9.80 out of 12
Air Quality Not available.
Flu Activity Not available.
METAR KCLE 301851Z 20009KT 10SM SCT032 BKN150 28/20 A3008 RMK AO2 SLP181 T02780200

10-Day Weather Forecast

×

Almanac

Astronomy

Aug. 30, 2015 Rise Set
Actual Time
Civil Twilight
Nautical Twilight
Astronomical Twilight
Moon
Length of Visible Light
Length of Day
Tomorrow will be .
, % of the Moon is Illuminated

Today's Extremes

State Highs State Lows

Community

WunderPhotos

Upload Photos

1,851,038 photos uploaded!

WunderBlogs® & News

Nearby

Air Quality

  Air Quality AQ Index Pollutant
Not available.

Snow Depth

Station Depth Elevation

Earthquake Activity

City Distance Mag. Time & Date
Minimum magnitude displayed is 2.5.

Coastal Water Temperatures

Place Temperature

Stations

Nearby Weather Stations

Station Location Temp. Windchill Dew Point Humidity Wind Precip. Elev Updated Type